AQQ10 IFIS: Internet Flight Information System
logo dgac
Miércoles 28 de Febrero del 2024
Buscar por aerodromo o helipuerto
Ingrese nombre de aeródromo, localidad o designador OACI:
METAR del 28-02-2024 a las 00:00 UTC
Para mayor información visite www.meteochile.gob.cl
METAR SCEL 280000Z 20011KT CAVOK 24/08 Q1012 NOSIG
Viento: dirección 200 grados, velocidad 11 nudos
Visibilidad: 10 km o más,
    sin nubes bajo los 5.000 pies o bajo del MSA (Mínimo de Seguridad del Aeródromo),
    sin cumulonimbus, y sin fenómenos de tiempo significativo en el aeródromo o alrededores
Temperatura: 24 °C
Rocío: 8 °C
Humedad_relativa: 36%
Presión: 1012 hPa
No se esperan cambios significativos en las próximas 2 horas
METAR del 27-02-2024 a las 23:00 UTC
Para mayor información visite www.meteochile.gob.cl
METAR SCEL 272300Z 21016KT CAVOK 25/09 Q1012 NOSIG
Viento: dirección 210 grados, velocidad 16 nudos
Visibilidad: 10 km o más,
    sin nubes bajo los 5.000 pies o bajo del MSA (Mínimo de Seguridad del Aeródromo),
    sin cumulonimbus, y sin fenómenos de tiempo significativo en el aeródromo o alrededores
Temperatura: 25 °C
Rocío: 9 °C
Humedad_relativa: 36%
Presión: 1012 hPa
No se esperan cambios significativos en las próximas 2 horas
METAR del 27-02-2024 a las 22:00 UTC
Para mayor información visite www.meteochile.gob.cl
METAR SCEL 272200Z 21018KT CAVOK 27/10 Q1011 NOSIG
Viento: dirección 210 grados, velocidad 18 nudos
Visibilidad: 10 km o más,
    sin nubes bajo los 5.000 pies o bajo del MSA (Mínimo de Seguridad del Aeródromo),
    sin cumulonimbus, y sin fenómenos de tiempo significativo en el aeródromo o alrededores
Temperatura: 27 °C
Rocío: 10 °C
Humedad_relativa: 34%
Presión: 1011 hPa
No se esperan cambios significativos en las próximas 2 horas
METAR del 27-02-2024 a las 21:00 UTC
Para mayor información visite www.meteochile.gob.cl
METAR SCEL 272100Z 22015KT 190V250 CAVOK 30/10 Q1011 NOSIG
Viento: dirección 220 grados, velocidad 15 nudos
Viento con dirección variable entre 190 y 250 grados
Visibilidad: 10 km o más,
    sin nubes bajo los 5.000 pies o bajo del MSA (Mínimo de Seguridad del Aeródromo),
    sin cumulonimbus, y sin fenómenos de tiempo significativo en el aeródromo o alrededores
Temperatura: 30 °C
Rocío: 10 °C
Humedad_relativa: 29%
Presión: 1011 hPa
No se esperan cambios significativos en las próximas 2 horas
METAR del 27-02-2024 a las 20:00 UTC
Para mayor información visite www.meteochile.gob.cl
METAR SCEL 272000Z 21014KT CAVOK 30/09 Q1011 NOSIG
Viento: dirección 210 grados, velocidad 14 nudos
Visibilidad: 10 km o más,
    sin nubes bajo los 5.000 pies o bajo del MSA (Mínimo de Seguridad del Aeródromo),
    sin cumulonimbus, y sin fenómenos de tiempo significativo en el aeródromo o alrededores
Temperatura: 30 °C
Rocío: 9 °C
Humedad_relativa: 27%
Presión: 1011 hPa
No se esperan cambios significativos en las próximas 2 horas
METAR del 27-02-2024 a las 19:00 UTC
Para mayor información visite www.meteochile.gob.cl
METAR SCEL 271900Z 21015KT CAVOK 31/08 Q1012 NOSIG
Viento: dirección 210 grados, velocidad 15 nudos
Visibilidad: 10 km o más,
    sin nubes bajo los 5.000 pies o bajo del MSA (Mínimo de Seguridad del Aeródromo),
    sin cumulonimbus, y sin fenómenos de tiempo significativo en el aeródromo o alrededores
Temperatura: 31 °C
Rocío: 8 °C
Humedad_relativa: 24%
Presión: 1012 hPa
No se esperan cambios significativos en las próximas 2 horas
METAR del 27-02-2024 a las 18:00 UTC
Para mayor información visite www.meteochile.gob.cl
METAR SCEL 271800Z 22012KT 180V260 CAVOK 31/08 Q1012 NOSIG
Viento: dirección 220 grados, velocidad 12 nudos
Viento con dirección variable entre 180 y 260 grados
Visibilidad: 10 km o más,
    sin nubes bajo los 5.000 pies o bajo del MSA (Mínimo de Seguridad del Aeródromo),
    sin cumulonimbus, y sin fenómenos de tiempo significativo en el aeródromo o alrededores
Temperatura: 31 °C
Rocío: 8 °C
Humedad_relativa: 24%
Presión: 1012 hPa
No se esperan cambios significativos en las próximas 2 horas
METAR del 27-02-2024 a las 17:00 UTC
Para mayor información visite www.meteochile.gob.cl
METAR SCEL 271700Z 18011KT 140V210 CAVOK 30/08 Q1013 NOSIG
Viento: dirección 180 grados, velocidad 11 nudos
Viento con dirección variable entre 140 y 210 grados
Visibilidad: 10 km o más,
    sin nubes bajo los 5.000 pies o bajo del MSA (Mínimo de Seguridad del Aeródromo),
    sin cumulonimbus, y sin fenómenos de tiempo significativo en el aeródromo o alrededores
Temperatura: 30 °C
Rocío: 8 °C
Humedad_relativa: 25%
Presión: 1013 hPa
No se esperan cambios significativos en las próximas 2 horas
METAR del 27-02-2024 a las 16:00 UTC
Para mayor información visite www.meteochile.gob.cl
METAR SCEL 271600Z 19008KT 150V220 CAVOK 28/08 Q1014 NOSIG
Viento: dirección 190 grados, velocidad 8 nudos
Viento con dirección variable entre 150 y 220 grados
Visibilidad: 10 km o más,
    sin nubes bajo los 5.000 pies o bajo del MSA (Mínimo de Seguridad del Aeródromo),
    sin cumulonimbus, y sin fenómenos de tiempo significativo en el aeródromo o alrededores
Temperatura: 28 °C
Rocío: 8 °C
Humedad_relativa: 28%
Presión: 1014 hPa
No se esperan cambios significativos en las próximas 2 horas
METAR del 27-02-2024 a las 15:00 UTC
Para mayor información visite www.meteochile.gob.cl
METAR SCEL 271500Z VRB04KT CAVOK 26/09 Q1014 NOSIG
Viento: dirección variable, velocidad 4 nudos
Visibilidad: 10 km o más,
    sin nubes bajo los 5.000 pies o bajo del MSA (Mínimo de Seguridad del Aeródromo),
    sin cumulonimbus, y sin fenómenos de tiempo significativo en el aeródromo o alrededores
Temperatura: 26 °C
Rocío: 9 °C
Humedad_relativa: 34%
Presión: 1014 hPa
No se esperan cambios significativos en las próximas 2 horas